Terminal Aerodrome Forecast
Issued by NWS North Platte, NE

Home | Current Version | Previous Version | Graphics & Text | Print | Product List | Glossary On
Versions: 1 2 3 4 5 6 7 8 9 10 11 12 13
000
FTUS43 KLBF 300500
TAFVTN
TAF
KVTN 300520Z 3006/0106 VRB06KT P6SM SKC
     FM301300 22007KT P6SM SCT200
     FM301700 14008KT P6SM BKN120 PROB30 3021/0101 5SM -TSRA
      BKN050CB
     FM010300 12008KT P6SM SCT120=

USA.gov is the U.S. government's official web portal to all federal, state and local government web resources and services.